East Princeton, Massachusetts
Current Conditions -  °F | °C
As of 4:37 PM on Wednesday 26 Nov 2014 (Local Time) from KFIT Reporting Station
Light Snow Light Snow  
Wind Chill: 27°   Ceiling: 700
Heat Index: 34°   Visibility: 1.2mi
Dew Point: 31°   Wind: 8mph
Humidity: 89%   Direction: 360°N
Pressure: 29.95"   Gusts: NA
Location:  42.47°N, 71.84°W
Report Text: KFIT 262137Z AUTO 36007KT 1 1/4SM -SN BR BKN007 OVC014 01/M01 A2995 RMK AO2 P0010 T00111006
Loading
Personal Weather Stations






























Interactive Weather Map New forecast layout! Learn more

10-Day Weather Forecast

Advertisements
Track Severe Weather on mobile